createdAt,value
2019-02-27T00:00:09.191Z,3.61
2019-02-27T00:02:35.298Z,3.66
2019-02-27T00:05:01.406Z,3.61
2019-02-27T00:07:27.266Z,3.44
2019-02-27T00:09:53.128Z,3.22
2019-02-27T00:12:19.364Z,3.33
2019-02-27T00:14:45.857Z,3.31
2019-02-27T00:17:11.706Z,3.37
2019-02-27T00:19:37.598Z,3.31
2019-02-27T00:22:03.542Z,3.32
2019-02-27T00:24:29.944Z,2.81
2019-02-27T00:26:56.459Z,2.85
2019-02-27T00:29:22.315Z,2.80
2019-02-27T00:31:48.176Z,2.73
2019-02-27T00:34:14.030Z,2.78
2019-02-27T00:36:39.904Z,2.81
2019-02-27T00:39:06.465Z,2.87
2019-02-27T00:41:32.332Z,2.92
2019-02-27T00:44:01.165Z,2.87
2019-02-27T00:46:25.976Z,2.59
2019-02-27T00:48:51.822Z,2.33
2019-02-27T00:51:17.705Z,2.19
2019-02-27T00:53:43.569Z,2.47
2019-02-27T00:56:11.923Z,2.47
2019-02-27T00:58:37.214Z,2.30
2019-02-27T01:01:03.075Z,2.36
2019-02-27T01:03:29.047Z,2.26
2019-02-27T01:05:55.080Z,2.08
2019-02-27T01:08:20.913Z,2.17
2019-02-27T01:10:46.850Z,2.39
2019-02-27T01:13:12.794Z,2.35
2019-02-27T01:15:38.681Z,1.52
2019-02-27T01:18:04.639Z,2.27
2019-02-27T01:20:30.484Z,2.14
2019-02-27T01:22:56.358Z,2.32
2019-02-27T01:25:23.045Z,2.15
2019-02-27T01:27:49.567Z,2.12
2019-02-27T01:30:16.131Z,2.19
2019-02-27T01:32:42.109Z,1.83
2019-02-27T01:35:09.264Z,1.71
2019-02-27T01:37:35.147Z,1.90
2019-02-27T01:40:00.998Z,2.00
2019-02-27T01:42:31.954Z,1.99
2019-02-27T01:44:54.627Z,1.98
2019-02-27T01:47:20.473Z,1.98
2019-02-27T01:49:48.937Z,1.98
2019-02-27T01:52:14.192Z,1.85
2019-02-27T01:54:40.080Z,1.48
2019-02-27T01:57:05.936Z,1.48
2019-02-27T01:59:31.816Z,1.67
2019-02-27T02:01:57.766Z,1.71
2019-02-27T02:04:23.658Z,1.71
2019-02-27T02:06:49.514Z,1.22
2019-02-27T02:09:30.421Z,1.21
2019-02-27T02:11:56.290Z,1.26
2019-02-27T02:14:34.768Z,1.09
2019-02-27T02:17:05.001Z,1.21
2019-02-27T02:19:55.831Z,1.09
2019-02-27T02:22:31.393Z,1.22
2019-02-27T02:25:12.945Z,1.55
2019-02-27T02:27:42.611Z,1.58
2019-02-27T02:30:38.263Z,1.35
2019-02-27T02:33:41.815Z,1.30
2019-02-27T02:36:26.371Z,1.15
2019-02-27T02:39:06.809Z,1.31
2019-02-27T02:41:53.301Z,1.35
2019-02-27T02:44:45.749Z,1.48
2019-02-27T02:47:21.510Z,1.43
2019-02-27T02:50:20.066Z,1.44
2019-02-27T02:53:05.992Z,1.47
2019-02-27T02:55:35.646Z,1.58
2019-02-27T02:58:32.261Z,1.50
2019-02-27T03:01:13.971Z,1.54
2019-02-27T03:03:54.128Z,1.51
2019-02-27T03:06:36.144Z,1.51
2019-02-27T03:09:30.357Z,1.48
2019-02-27T03:12:16.173Z,1.37
2019-02-27T03:15:12.010Z,1.07
2019-02-27T03:17:55.067Z,0.89
2019-02-27T03:20:41.476Z,0.93
2019-02-27T03:23:17.174Z,0.99
2019-02-27T03:25:52.623Z,0.99
2019-02-27T03:28:50.479Z,0.98
2019-02-27T03:31:23.179Z,0.88
2019-02-27T03:34:12.206Z,0.75
2019-02-27T03:37:01.763Z,-0.84
2019-02-27T03:39:46.814Z,0.75
2019-02-27T03:42:35.200Z,0.82
2019-02-27T03:45:20.070Z,0.65
2019-02-27T03:48:04.951Z,0.85
2019-02-27T03:50:50.749Z,0.82
2019-02-27T03:53:20.634Z,0.73
2019-02-27T03:56:23.190Z,0.74
2019-02-27T03:59:09.778Z,0.84
2019-02-27T04:01:48.084Z,0.77
2019-02-27T04:04:35.848Z,0.66
2019-02-27T04:07:40.666Z,0.46
2019-02-27T04:10:06.524Z,0.24
2019-02-27T04:12:32.411Z,0.10
2019-02-27T04:14:58.371Z,0.04
2019-02-27T04:17:27.141Z,0.34
2019-02-27T04:19:53.155Z,0.50
2019-02-27T04:22:19.010Z,0.57
2019-02-27T04:24:44.889Z,0.76
2019-02-27T04:27:10.744Z,0.52
2019-02-27T04:29:40.803Z,0.65
2019-02-27T04:32:04.393Z,0.55
2019-02-27T04:34:32.999Z,0.47
2019-02-27T04:36:58.047Z,0.62
2019-02-27T04:39:23.901Z,0.50
2019-02-27T04:41:51.991Z,0.60
2019-02-27T04:44:17.661Z,0.52
2019-02-27T04:46:43.494Z,0.47
2019-02-27T04:49:09.406Z,0.35
2019-02-27T04:51:35.317Z,0.45
2019-02-27T04:54:01.193Z,0.30
2019-02-27T04:56:27.319Z,0.23
2019-02-27T04:58:53.248Z,0.13
2019-02-27T05:01:19.104Z,0.20
2019-02-27T05:03:44.981Z,0.14
2019-02-27T05:06:11.955Z,0.04
2019-02-27T05:08:38.607Z,0.10
2019-02-27T05:11:04.587Z,0.08
2019-02-27T05:13:30.533Z,0.17
2019-02-27T05:15:59.436Z,0.18
2019-02-27T05:18:29.272Z,0.30
2019-02-27T05:20:53.023Z,0.41
2019-02-27T05:23:19.079Z,0.31
2019-02-27T05:25:44.933Z,0.07
2019-02-27T05:28:10.830Z,0.14
2019-02-27T05:30:36.715Z,-0.26
2019-02-27T05:33:02.914Z,-0.20
2019-02-27T05:35:28.750Z,0.03
2019-02-27T05:37:54.631Z,0.19
2019-02-27T05:40:23.103Z,0.17
2019-02-27T05:42:49.454Z,0.38
2019-02-27T05:45:15.433Z,0.38
2019-02-27T05:47:44.850Z,0.45
2019-02-27T05:50:10.540Z,0.18
2019-02-27T05:52:36.398Z,-0.24
2019-02-27T05:55:06.030Z,0.01
2019-02-27T05:57:31.413Z,0.01
2019-02-27T06:00:02.111Z,0.14
2019-02-27T06:02:25.617Z,0.06
2019-02-27T06:04:51.665Z,0.15
2019-02-27T06:07:19.030Z,-0.14
2019-02-27T06:09:45.382Z,-1.02
2019-02-27T06:12:11.272Z,-0.13
2019-02-27T06:14:37.123Z,0.21
2019-02-27T06:17:03.126Z,0.13
2019-02-27T06:19:30.630Z,0.12
2019-02-27T06:21:56.938Z,0.24
2019-02-27T06:24:22.793Z,0.26
2019-02-27T06:26:48.634Z,0.34
2019-02-27T06:29:14.480Z,0.11
2019-02-27T06:31:40.328Z,-1.17
2019-02-27T06:34:06.165Z,0.02
2019-02-27T06:36:32.014Z,0.09
2019-02-27T06:39:00.260Z,0.08
2019-02-27T06:41:25.713Z,-0.04
2019-02-27T06:43:51.547Z,-1.90
2019-02-27T06:46:20.019Z,0.00
2019-02-27T06:48:45.654Z,-0.12
2019-02-27T06:51:11.559Z,0.00
2019-02-27T06:53:37.362Z,0.02
2019-02-27T06:56:04.031Z,0.07
2019-02-27T06:58:29.938Z,0.07
2019-02-27T07:00:55.795Z,0.16
2019-02-27T07:03:21.684Z,0.44
2019-02-27T07:05:48.156Z,0.44
2019-02-27T07:08:14.686Z,0.33
2019-02-27T07:10:40.498Z,0.39
2019-02-27T07:13:06.351Z,0.55
2019-02-27T07:15:32.180Z,0.60
2019-02-27T07:17:58.117Z,0.64
2019-02-27T07:20:25.113Z,0.68
2019-02-27T07:22:51.192Z,0.76
2019-02-27T07:25:17.530Z,0.80
2019-02-27T07:27:43.407Z,0.90
2019-02-27T07:30:16.235Z,0.95
2019-02-27T07:32:42.070Z,1.12
2019-02-27T07:35:09.417Z,1.25
2019-02-27T07:37:35.245Z,1.36
2019-02-27T07:40:01.433Z,1.46
2019-02-27T07:42:31.966Z,1.56
2019-02-27T07:44:55.075Z,1.67
2019-02-27T07:47:20.925Z,1.82
2019-02-27T07:49:48.240Z,1.97
2019-02-27T07:52:14.229Z,2.26
2019-02-27T07:54:40.066Z,2.42
2019-02-27T07:57:06.017Z,2.69
2019-02-27T07:59:31.849Z,2.85
2019-02-27T08:02:02.312Z,2.91
2019-02-27T08:04:25.493Z,3.08
2019-02-27T08:06:51.336Z,3.12
2019-02-27T08:09:17.159Z,3.13
2019-02-27T08:11:47.120Z,3.18
2019-02-27T08:14:12.892Z,3.24
2019-02-27T08:16:38.740Z,3.35
2019-02-27T08:19:04.594Z,3.50
2019-02-27T08:21:30.476Z,3.80
2019-02-27T08:23:56.341Z,3.86
2019-02-27T08:26:22.334Z,3.94
2019-02-27T08:28:48.266Z,4.04
2019-02-27T08:31:14.144Z,4.02
2019-02-27T08:33:40.148Z,4.34
2019-02-27T08:36:06.065Z,4.17
2019-02-27T08:38:31.955Z,3.31
2019-02-27T08:40:58.487Z,4.28
2019-02-27T08:43:24.419Z,4.27
2019-02-27T08:45:50.284Z,4.31
2019-02-27T08:48:17.483Z,4.43
2019-02-27T08:50:44.012Z,4.61
2019-02-27T08:53:09.946Z,4.86
2019-02-27T08:55:39.041Z,5.00
2019-02-27T08:58:03.712Z,4.99
2019-02-27T09:00:30.968Z,4.99
2019-02-27T09:02:56.984Z,3.68
2019-02-27T09:05:23.105Z,5.23
2019-02-27T09:07:48.958Z,4.35
2019-02-27T09:10:19.319Z,5.49
2019-02-27T09:12:48.172Z,5.49
2019-02-27T09:15:13.370Z,5.66
2019-02-27T09:17:39.312Z,6.12
2019-02-27T09:20:08.182Z,6.34
2019-02-27T09:22:36.758Z,6.64
2019-02-27T09:25:02.503Z,6.64
2019-02-27T09:27:28.387Z,6.62
2019-02-27T09:29:54.758Z,6.83
2019-02-27T09:32:21.352Z,7.07
2019-02-27T09:34:47.192Z,7.25
2019-02-27T09:37:13.914Z,7.38
2019-02-27T09:39:40.068Z,7.78
2019-02-27T09:42:06.049Z,7.78
2019-02-27T09:44:36.344Z,8.00
2019-02-27T09:46:59.782Z,8.08
2019-02-27T09:49:25.648Z,8.24
2019-02-27T09:51:55.974Z,8.36
2019-02-27T09:54:19.305Z,8.27
2019-02-27T09:56:45.168Z,8.27
2019-02-27T09:59:11.063Z,8.34
2019-02-27T10:01:37.041Z,8.47
2019-02-27T10:04:03.036Z,8.70
2019-02-27T10:06:28.949Z,8.77
2019-02-27T10:08:56.504Z,8.93
2019-02-27T10:11:22.651Z,8.94
2019-02-27T10:13:48.519Z,9.12
2019-02-27T10:16:14.395Z,9.22
2019-02-27T10:18:40.233Z,9.58
2019-02-27T10:21:06.098Z,9.61
2019-02-27T10:23:31.977Z,9.90
2019-02-27T10:25:57.812Z,9.93
2019-02-27T10:28:23.696Z,9.91
2019-02-27T10:30:50.045Z,9.87
2019-02-27T10:33:16.727Z,10.28
2019-02-27T10:35:42.558Z,10.48
2019-02-27T10:38:08.539Z,10.50
2019-02-27T10:40:34.439Z,10.72
2019-02-27T10:43:00.441Z,10.81
2019-02-27T10:45:26.345Z,10.73
2019-02-27T10:47:52.293Z,10.69
2019-02-27T10:50:18.277Z,11.07
2019-02-27T10:52:44.147Z,11.34
2019-02-27T10:55:15.633Z,11.36
2019-02-27T10:57:41.681Z,11.10
2019-02-27T11:00:19.219Z,11.10
2019-02-27T11:02:47.905Z,11.77
2019-02-27T11:05:15.092Z,11.77
2019-02-27T11:07:40.936Z,11.98
2019-02-27T11:10:07.814Z,12.05
2019-02-27T11:12:33.670Z,12.34
2019-02-27T11:14:59.521Z,12.17
2019-02-27T11:17:25.407Z,11.45
2019-02-27T11:19:51.267Z,12.08
2019-02-27T11:22:17.155Z,12.32
2019-02-27T11:24:43.106Z,12.40
2019-02-27T11:27:09.009Z,12.28
2019-02-27T11:29:34.853Z,12.55
2019-02-27T11:32:00.752Z,12.61
2019-02-27T11:34:26.616Z,13.13
2019-02-27T11:36:52.474Z,13.38
2019-02-27T11:39:18.437Z,13.70
2019-02-27T11:41:46.097Z,13.80
2019-02-27T11:44:14.318Z,14.09
2019-02-27T11:46:39.861Z,12.94
2019-02-27T11:49:05.761Z,14.27
2019-02-27T11:51:31.606Z,14.13
2019-02-27T11:53:57.462Z,13.92
2019-02-27T11:56:23.349Z,13.53
2019-02-27T11:58:49.218Z,13.89
2019-02-27T12:01:15.105Z,13.90
2019-02-27T12:03:45.718Z,14.43
2019-02-27T12:06:08.844Z,14.16
2019-02-27T12:08:34.749Z,14.46
2019-02-27T12:11:00.611Z,14.22
2019-02-27T12:13:26.614Z,14.59
2019-02-27T12:15:52.488Z,14.68
2019-02-27T12:18:18.437Z,14.76
2019-02-27T12:20:44.385Z,14.99
2019-02-27T12:23:10.840Z,15.71
2019-02-27T12:25:36.747Z,15.60
2019-02-27T12:28:04.129Z,15.98
2019-02-27T12:30:30.024Z,14.77
2019-02-27T12:32:56.949Z,16.04
2019-02-27T12:35:33.926Z,16.36
2019-02-27T12:37:59.842Z,16.42
2019-02-27T12:40:25.800Z,15.49
2019-02-27T12:42:51.804Z,16.43
2019-02-27T12:45:19.773Z,16.43
2019-02-27T12:47:45.779Z,15.60
2019-02-27T12:50:16.645Z,16.70
2019-02-27T12:52:44.811Z,16.86
2019-02-27T12:55:11.302Z,17.09
2019-02-27T12:57:37.199Z,17.22
2019-02-27T13:00:24.538Z,17.58
2019-02-27T13:02:50.428Z,18.14
2019-02-27T13:05:18.094Z,18.99
2019-02-27T13:07:44.736Z,19.66
2019-02-27T13:10:14.058Z,19.20
2019-02-27T13:12:39.928Z,19.85
2019-02-27T13:15:21.956Z,20.48
2019-02-27T13:17:47.844Z,19.84
2019-02-27T13:20:19.710Z,18.88
2019-02-27T13:22:45.650Z,18.35
2019-02-27T13:25:11.844Z,18.21
2019-02-27T13:28:10.141Z,19.23
2019-02-27T13:30:19.359Z,18.22
2019-02-27T13:32:45.252Z,18.73
2019-02-27T13:35:11.347Z,18.81
2019-02-27T13:37:44.776Z,19.25
2019-02-27T13:40:13.343Z,18.93
2019-02-27T13:42:39.309Z,18.16
2019-02-27T13:45:12.672Z,18.23
2019-02-27T13:47:36.810Z,18.44
2019-02-27T13:50:04.661Z,18.75
2019-02-27T13:52:30.562Z,19.40
2019-02-27T13:54:56.405Z,18.79
2019-02-27T13:57:25.038Z,18.61
2019-02-27T13:59:50.081Z,18.70
2019-02-27T14:02:15.969Z,18.67
2019-02-27T14:04:41.839Z,18.80
2019-02-27T14:07:07.830Z,19.72
2019-02-27T14:09:33.793Z,19.64
2019-02-27T14:11:59.693Z,19.35
2019-02-27T14:14:25.655Z,18.29
2019-02-27T14:16:51.533Z,17.95
2019-02-27T14:19:17.441Z,18.45
2019-02-27T14:21:43.292Z,18.88
2019-02-27T14:24:09.343Z,18.93
2019-02-27T14:26:44.182Z,18.81
2019-02-27T14:29:10.141Z,18.68
2019-02-27T14:31:36.107Z,17.52
2019-02-27T14:34:02.006Z,18.87
2019-02-27T14:36:30.807Z,19.15
2019-02-27T14:38:56.851Z,19.51
2019-02-27T14:41:23.702Z,20.52
2019-02-27T14:43:49.705Z,19.40
2019-02-27T14:46:15.605Z,18.89
2019-02-27T14:48:41.498Z,19.05
2019-02-27T14:51:11.008Z,19.13
2019-02-27T14:53:35.399Z,18.84
2019-02-27T14:56:04.270Z,19.24
2019-02-27T14:58:29.887Z,18.94
2019-02-27T15:00:55.827Z,19.07
2019-02-27T15:03:21.938Z,19.40
2019-02-27T15:05:49.191Z,19.00
2019-02-27T15:08:20.596Z,18.63
2019-02-27T15:10:46.642Z,18.47
2019-02-27T15:13:12.452Z,18.26
2019-02-27T15:15:58.448Z,18.57
2019-02-27T15:18:24.275Z,19.52
2019-02-27T15:20:50.099Z,19.44
2019-02-27T15:23:15.902Z,18.65
2019-02-27T15:25:43.067Z,18.13
2019-02-27T15:28:09.586Z,18.39
2019-02-27T15:30:35.424Z,18.47
2019-02-27T15:33:05.119Z,18.32
2019-02-27T15:35:29.087Z,17.79
2019-02-27T15:37:55.033Z,17.14
2019-02-27T15:41:03.373Z,16.97
2019-02-27T15:43:30.251Z,16.99
2019-02-27T15:45:56.062Z,16.64
2019-02-27T15:48:21.965Z,16.47
2019-02-27T15:50:47.738Z,16.32
2019-02-27T15:53:15.031Z,16.08
2019-02-27T15:55:41.336Z,15.90
2019-02-27T15:58:07.166Z,15.98
2019-02-27T16:00:32.988Z,15.79
2019-02-27T16:02:58.804Z,15.74
2019-02-27T16:05:29.996Z,15.67
2019-02-27T16:07:52.522Z,15.54
2019-02-27T16:10:42.671Z,15.46
2019-02-27T16:13:05.960Z,15.38
2019-02-27T16:15:31.806Z,15.22
2019-02-27T16:17:57.648Z,15.11
2019-02-27T16:20:43.378Z,15.07
2019-02-27T16:23:29.086Z,14.90
2019-02-27T16:25:56.503Z,14.73
2019-02-27T16:28:22.704Z,14.78
2019-02-27T16:31:08.534Z,14.62
2019-02-27T16:33:34.528Z,14.41
2019-02-27T16:36:00.521Z,14.41
2019-02-27T16:38:28.424Z,14.32
2019-02-27T16:40:54.087Z,14.19
2019-02-27T16:43:19.937Z,13.95
2019-02-27T16:45:45.784Z,13.63
2019-02-27T16:48:34.673Z,13.30
2019-02-27T16:51:00.640Z,13.25
2019-02-27T16:53:27.187Z,13.12
2019-02-27T16:55:53.075Z,13.06
2019-02-27T16:58:18.906Z,12.88
2019-02-27T17:01:04.744Z,12.83
2019-02-27T17:03:30.568Z,12.41
2019-02-27T17:05:56.428Z,12.43
2019-02-27T17:08:22.289Z,12.41
2019-02-27T17:10:51.692Z,12.53
2019-02-27T17:13:15.888Z,12.53
2019-02-27T17:15:41.729Z,12.17
2019-02-27T17:18:07.590Z,12.07
2019-02-27T17:20:33.427Z,11.89
2019-02-27T17:22:59.266Z,11.94
2019-02-27T17:25:29.001Z,12.18
2019-02-27T17:27:53.573Z,12.36
2019-02-27T17:30:40.517Z,12.19
2019-02-27T17:33:26.325Z,11.87
2019-02-27T17:35:53.175Z,11.53
2019-02-27T17:38:19.953Z,11.70
2019-02-27T17:40:45.806Z,11.66
2019-02-27T17:43:11.900Z,11.52
2019-02-27T17:45:37.740Z,11.32
2019-02-27T17:48:23.563Z,10.98
2019-02-27T17:51:09.306Z,10.44
2019-02-27T17:53:35.142Z,10.44
2019-02-27T17:56:00.975Z,10.09
2019-02-27T17:58:31.834Z,9.83
2019-02-27T18:03:41.947Z,9.67
2019-02-27T18:06:07.750Z,9.54
2019-02-27T18:08:33.597Z,9.75
2019-02-27T18:10:59.447Z,9.85
2019-02-27T18:13:25.295Z,9.90
2019-02-27T18:15:53.242Z,9.67
2019-02-27T18:18:18.887Z,9.53
2019-02-27T18:20:44.994Z,9.37
2019-02-27T18:23:30.737Z,8.35
2019-02-27T18:25:56.556Z,8.35
2019-02-27T18:28:22.401Z,8.48
2019-02-27T18:30:52.883Z,8.15
2019-02-27T18:33:17.465Z,8.06
2019-02-27T18:35:43.744Z,8.06
2019-02-27T18:38:09.586Z,8.10
2019-02-27T18:40:35.450Z,8.15
2019-02-27T18:43:01.277Z,8.27
2019-02-27T18:46:08.830Z,8.24
2019-02-27T18:48:34.667Z,8.24
2019-02-27T18:51:00.525Z,8.14
2019-02-27T18:53:26.370Z,7.92
2019-02-27T18:55:52.219Z,7.57
2019-02-27T18:58:20.720Z,7.65
2019-02-27T19:00:46.128Z,7.65
2019-02-27T19:03:31.877Z,7.59
2019-02-27T19:05:57.771Z,7.59
2019-02-27T19:08:25.274Z,7.62
2019-02-27T19:10:51.372Z,7.47
2019-02-27T19:13:17.195Z,7.17
2019-02-27T19:15:46.342Z,7.14
2019-02-27T19:18:30.777Z,7.20
2019-02-27T19:20:59.333Z,7.20
2019-02-27T19:23:44.357Z,6.66
2019-02-27T19:26:30.098Z,6.62
2019-02-27T19:28:59.333Z,6.62
2019-02-27T19:31:43.573Z,6.61
2019-02-27T19:34:29.280Z,6.66
2019-02-27T19:37:15.038Z,6.52
2019-02-27T19:39:40.879Z,6.52
2019-02-27T19:42:06.830Z,6.47
2019-02-27T19:44:32.657Z,6.54
2019-02-27T19:46:58.483Z,6.61
2019-02-27T19:49:24.331Z,6.60
2019-02-27T19:51:54.628Z,6.44
2019-02-27T19:54:18.657Z,6.13
2019-02-27T19:56:45.685Z,5.47
2019-02-27T20:01:48.351Z,5.27
2019-02-27T20:04:12.814Z,5.29
2019-02-27T20:06:39.513Z,5.26
2019-02-27T20:09:25.302Z,5.44
2019-02-27T20:11:51.145Z,5.44
2019-02-27T20:14:37.417Z,5.36
2019-02-27T20:17:23.304Z,5.43
2019-02-27T20:19:49.320Z,5.52
2019-02-27T20:22:35.113Z,5.20
2019-02-27T20:25:44.187Z,5.20
2019-02-27T20:28:10.536Z,5.40
2019-02-27T20:33:30.151Z,5.37
2019-02-27T20:35:56.679Z,5.37
2019-02-27T20:38:23.726Z,5.34
2019-02-27T20:41:09.558Z,5.30
2019-02-27T20:43:35.399Z,5.00
2019-02-27T20:46:01.262Z,4.83
2019-02-27T20:48:27.181Z,5.05
2019-02-27T20:51:39.801Z,4.97
2019-02-27T20:54:02.785Z,4.70
2019-02-27T20:56:32.251Z,4.69
2019-02-27T20:58:58.280Z,4.54
2019-02-27T21:01:24.169Z,4.51
2019-02-27T21:03:50.071Z,4.48
2019-02-27T21:06:16.029Z,4.52
2019-02-27T21:08:41.900Z,4.48
2019-02-27T21:11:08.123Z,4.47
2019-02-27T21:13:34.041Z,4.51
2019-02-27T21:15:59.923Z,4.13
2019-02-27T21:21:02.915Z,4.27
2019-02-27T21:23:31.860Z,4.07
2019-02-27T21:25:56.607Z,4.27
2019-02-27T21:28:22.454Z,4.06
2019-02-27T21:31:29.989Z,4.22
2019-02-27T21:34:19.259Z,4.04
2019-02-27T21:37:03.298Z,4.05
2019-02-27T21:39:29.141Z,4.05
2019-02-27T21:41:54.969Z,4.05
2019-02-27T21:44:25.449Z,4.03
2019-02-27T21:47:08.408Z,3.65
2019-02-27T21:52:47.733Z,3.36
2019-02-27T21:55:13.769Z,3.36
2019-02-27T21:57:41.447Z,3.33
2019-02-27T22:03:20.690Z,2.70
2019-02-27T22:08:25.172Z,2.86
2019-02-27T22:10:53.563Z,3.12
2019-02-27T22:13:28.919Z,3.17
2019-02-27T22:16:06.787Z,3.35
2019-02-27T22:18:32.645Z,3.35
2019-02-27T22:20:59.688Z,3.09
2019-02-27T22:23:28.293Z,2.70
2019-02-27T22:25:53.954Z,3.05
2019-02-27T22:28:39.651Z,3.16
2019-02-27T22:31:06.660Z,3.02
2019-02-27T22:33:55.945Z,2.58
2019-02-27T22:36:20.826Z,2.58
2019-02-27T22:38:46.651Z,1.72
2019-02-27T22:41:12.480Z,1.64
2019-02-27T22:43:38.328Z,2.06
2019-02-27T22:46:04.136Z,2.24
2019-02-27T22:48:29.957Z,2.50
2019-02-27T22:50:55.791Z,2.53
2019-02-27T22:53:21.618Z,2.49
2019-02-27T22:55:47.456Z,2.54
2019-02-27T22:58:13.283Z,2.62
2019-02-27T23:01:20.737Z,2.71
2019-02-27T23:04:30.007Z,2.70
2019-02-27T23:06:55.951Z,2.45
2019-02-27T23:12:40.608Z,2.27
2019-02-27T23:15:26.422Z,2.22
2019-02-27T23:17:52.254Z,2.12
2019-02-27T23:20:21.000Z,2.08
2019-02-27T23:22:45.836Z,2.19
2019-02-27T23:25:11.689Z,2.14
2019-02-27T23:27:37.522Z,2.04
2019-02-27T23:30:47.026Z,1.70
2019-02-27T23:33:12.746Z,1.36
2019-02-27T23:35:38.598Z,1.30
2019-02-27T23:38:04.417Z,1.27
2019-02-27T23:40:30.252Z,1.51
2019-02-27T23:42:56.106Z,1.51
2019-02-27T23:45:21.928Z,1.47
2019-02-27T23:47:47.778Z,1.54
2019-02-27T23:50:13.605Z,1.59
2019-02-27T23:52:39.459Z,1.78
2019-02-27T23:55:07.097Z,1.88
2019-02-27T23:57:33.113Z,1.95
2019-02-27T23:59:58.938Z,1.71
